This is the latest recevied weather packets stored in our database for station/object VA6NA. If no packets are shown the sender has not sent any weather packets the latest 10 day(s).
| Time | Temp. | Humidity | Pressure | Rain* | Wind** | Luminosity | Snow |
|---|---|---|---|---|---|---|---|
| 1777659344 | 18.33° C | 47% | 1017.5 hPa | 0 mm | - | - | - |
| 1777651540 | 16.11° C | 51% | 1017.2 hPa | 0 mm | - | - | - |
| 1777640124 | 11.67° C | 56% | 1015.8 hPa | 0 mm | - | - | - |
| 1777638925 | 11.67° C | 56% | 1015.5 hPa | 0 mm | - | - | - |
| 1777627528 | 11.11° C | 53% | 1014.4 hPa | 0 mm | - | - | - |
| 1777625120 | 11.67° C | 51% | 1014.4 hPa | 0 mm | - | - | - |
| 1777623326 | 12.78° C | 50% | 1014.3 hPa | 0 mm | - | - | - |
| 1777616720 | 14.44° C | 45% | 1014.8 hPa | 0 mm | - | - | - |
| 1777614331 | 15.56° C | 43% | 1014.8 hPa | 0 mm | - | - | - |
| 1777613746 | 15.56° C | 43% | 1015 hPa | 0 mm | - | - | - |
| 1777613127 | 15.56° C | 43% | 1015 hPa | 0 mm | - | - | - |
| 1777612524 | 15° C | 44% | 1015 hPa | 0 mm | - | - | - |
| 1777605929 | 16.67° C | 39% | 1015.3 hPa | 0 mm | - | - | - |
| 1777595171 | 25° C | 28% | 1016.5 hPa | 0 mm | - | - | - |
| 1777589116 | 25° C | 29% | 1017.5 hPa | 0 mm | - | - | - |
| 1777585516 | 24.44° C | 32% | 1018.1 hPa | 0 mm | - | - | - |
| 1777584937 | 23.89° C | 32% | 1018.2 hPa | 0 mm | - | - | - |
| 1777581918 | 23.33° C | 34% | 1018.7 hPa | 0 mm | - | - | - |
| 1777580721 | 23.33° C | 34% | 1019 hPa | 0 mm | - | - | - |
| 1777577116 | 22.78° C | 35% | 1019.7 hPa | 0 mm | - | - | - |
| 1777573554 | 20° C | 40% | 1020.6 hPa | 0 mm | - | - | - |
| 1777570521 | 18.33° C | 43% | 1021 hPa | 0 mm | - | - | - |
| 1777568723 | 16.67° C | 46% | 1021.3 hPa | 0 mm | - | - | - |
| 1777566326 | 15° C | 50% | 1021.7 hPa | 0 mm | - | - | - |
| 1777560336 | 12.22° C | 52% | 1022.5 hPa | 0 mm | - | - | - |
* Rain latest hour (hover to see other rain measurements)
** Current wind speed in m/s (hover to see current wind gust speed)